TimeAKDT,TemperatureF,Dew PointF,Humidity,Sea Level PressureIn,VisibilityMPH,Wind Direction,Wind SpeedMPH,Gust SpeedMPH,PrecipitationIn,Events,Conditions,WindDirDegrees,DateUTC
12:53 AM,41.0,39.9,96,30.50,10.0,Calm,Calm,-,N/A,,Clear,0,2012-10-04 08:53:00
1:53 AM,39.0,37.9,96,30.50,10.0,Calm,Calm,-,N/A,,Clear,0,2012-10-04 09:53:00
2:53 AM,39.0,37.0,93,30.49,10.0,Calm,Calm,-,N/A,,Clear,0,2012-10-04 10:53:00
3:53 AM,37.9,37.0,97,30.50,10.0,Calm,Calm,-,N/A,,Mostly Cloudy,0,2012-10-04 11:53:00
4:53 AM,37.0,36.0,96,30.50,10.0,Calm,Calm,-,N/A,,Clear,0,2012-10-04 12:53:00
5:53 AM,37.9,37.0,97,30.50,10.0,Calm,Calm,-,N/A,,Clear,0,2012-10-04 13:53:00
6:53 AM,37.9,37.0,97,30.50,10.0,Calm,Calm,-,N/A,,Mostly Cloudy,0,2012-10-04 14:53:00
7:53 AM,41.0,39.9,96,30.50,10.0,Calm,Calm,-,N/A,,Mostly Cloudy,0,2012-10-04 15:53:00
8:53 AM,48.0,45.0,89,30.50,10.0,NW,3.5,-,N/A,,Mostly Cloudy,320,2012-10-04 16:53:00
9:53 AM,52.0,43.0,71,30.50,10.0,NNW,4.6,-,N/A,,Mostly Cloudy,330,2012-10-04 17:53:00
10:53 AM,52.0,43.0,71,30.50,10.0,Calm,Calm,-,N/A,,Mostly Cloudy,0,2012-10-04 18:53:00
11:53 AM,53.1,41.0,64,30.51,10.0,Calm,Calm,-,N/A,,Overcast,0,2012-10-04 19:53:00
12:53 PM,52.0,42.1,69,30.51,10.0,NNW,4.6,-,N/A,,Overcast,330,2012-10-04 20:53:00
1:53 PM,55.0,39.9,57,30.51,10.0,NW,3.5,-,N/A,,Mostly Cloudy,320,2012-10-04 21:53:00
2:53 PM,57.0,41.0,55,30.50,10.0,NW,5.8,-,N/A,,Mostly Cloudy,320,2012-10-04 22:53:00
3:53 PM,55.9,43.0,62,30.49,10.0,NW,5.8,-,N/A,,Mostly Cloudy,310,2012-10-04 23:53:00
4:53 PM,54.0,46.0,75,30.49,10.0,NW,4.6,-,N/A,,Mostly Cloudy,320,2012-10-05 00:53:00
5:24 PM,51.8,44.6,76,30.48,10.0,NNW,3.5,-,N/A,,Overcast,330,2012-10-05 01:24:00
5:51 PM,51.8,46.4,82,30.48,10.0,North,3.5,-,N/A,,Overcast,350,2012-10-05 01:51:00
5:53 PM,51.1,46.0,83,30.48,10.0,NNW,3.5,-,N/A,,Overcast,340,2012-10-05 01:53:00
6:53 PM,51.1,45.0,80,30.48,10.0,NNW,5.8,-,N/A,,Overcast,330,2012-10-05 02:53:00
7:36 PM,51.8,44.6,76,30.48,10.0,NW,6.9,-,N/A,,Overcast,310,2012-10-05 03:36:00
7:53 PM,50.0,45.0,83,30.48,10.0,NW,4.6,-,N/A,,Scattered Clouds,320,2012-10-05 03:53:00
8:53 PM,50.0,45.0,83,30.47,10.0,North,4.6,-,N/A,,Mostly Cloudy,360,2012-10-05 04:53:00
9:53 PM,48.9,46.0,90,30.48,10.0,NW,4.6,-,N/A,,Mostly Cloudy,310,2012-10-05 05:53:00
10:26 PM,51.8,46.4,82,30.48,10.0,NW,6.9,-,N/A,,Overcast,320,2012-10-05 06:26:00
10:53 PM,51.1,46.9,86,30.48,10.0,NW,4.6,-,N/A,,Overcast,320,2012-10-05 06:53:00
11:53 PM,51.1,46.9,86,30.48,10.0,WNW,3.5,-,N/A,,Overcast,300,2012-10-05 07:53:00